This is the latest recevied weather packets stored in our database for station/object OE-11073. If no packets are shown the sender has not sent any weather packets the latest 10 day(s).
| Time | Temp. | Humidity | Pressure | Rain* | Wind** | Luminosity | Snow |
|---|---|---|---|---|---|---|---|
| 1787757910 | 25° C | 57% | - | 0 mm | - | 329 W/m² | - |
| 1787757083 | 25.56° C | 57% | - | 0 mm | - | 337 W/m² | - |
| 1787756710 | 25° C | 53% | - | 0 mm | - | 291 W/m² | - |
| 1787756110 | 25.56° C | 52% | - | 0 mm | - | 459 W/m² | - |
| 1787755284 | 25° C | 55% | - | 0 mm | - | 352 W/m² | - |
| 1787754910 | 25.56° C | 53% | - | 0 mm | - | 520 W/m² | - |
| 1787754310 | 25.56° C | 53% | - | 0 mm | - | 551 W/m² | - |
| 1787753483 | 25.56° C | 53% | - | 0 mm | - | 620 W/m² | - |
| 1787753110 | 25.56° C | 50% | - | 0 mm | - | 627 W/m² | - |
| 1787752510 | 25.56° C | 51% | - | 0 mm | - | 643 W/m² | - |
| 1787751683 | 25° C | 53% | - | 0 mm | - | 643 W/m² | - |
| 1787751310 | 25° C | 55% | - | 0 mm | - | 666 W/m² | - |
| 1787749883 | 24.44° C | 61% | - | 0 mm | - | 666 W/m² | - |
| 1787749510 | 24.44° C | 62% | - | 0 mm | - | 719 W/m² | - |
| 1787748910 | 23.89° C | 61% | - | 0 mm | - | 719 W/m² | - |
| 1787748083 | 23.89° C | 62% | - | 0 mm | - | 734 W/m² | - |
| 1787747710 | 23.33° C | 61% | - | 0 mm | - | 742 W/m² | - |
| 1787747109 | 23.33° C | 61% | - | 0 mm | - | 742 W/m² | - |
| 1787746283 | 22.78° C | 61% | - | 0 mm | - | 704 W/m² | - |
| 1787745910 | 22.78° C | 57% | - | 0 mm | - | 757 W/m² | - |
| 1787745309 | 22.78° C | 63% | - | 0 mm | - | 788 W/m² | - |
| 1787744482 | 22.22° C | 63% | - | 0 mm | - | 788 W/m² | - |
| 1787744110 | 22.22° C | 63% | - | 0 mm | - | 788 W/m² | - |
| 1787743510 | 21.67° C | 62% | - | 0 mm | - | 796 W/m² | - |
| 1787742683 | 21.67° C | 57% | - | 0 mm | - | 796 W/m² | - |
* Rain latest hour (hover to see other rain measurements)
** Current wind speed in m/s (hover to see current wind gust speed)